Charlevoix, MI

8:40 AM EDT on April 27, 2015 (GMT -0400)
1.5 W Ironton | | Change Station
CLOSE
Current Station
Personal Weather Station
Location: Charlevoix, MI
Elevation: 750 ft
Nearby Weather Stations

Elev 750 ft 45.26 °N, 85.22 °W | Updated 9 seconds ago

Overcast
Overcast
40.6 °F
Feels Like 41 °F
N
1.0
Wind Variable Wind from NNW
Gusts 7.0 mph

Today
High -- | Low -- °F
--% Chance of Precip.
Yesterday
High -- | Low -- °F
Precip. -- in
6:36 AM 8:42 PM
Waxing Gibbous, 64% visible
Pressure 30.09 in
Visibility 10.0 miles
Clouds Overcast 2700 ft
Windchill 41 °F
Dew Point 37 °F
Humidity 86%
Rainfall 0.00 in
Snow Depth Not available.
UV 0 out of 12
Pollen 10.10 out of 12
Air Quality Not available.
Flu Activity Regional
METAR KCVX 271235Z AUTO 36006KT 10SM OVC027 04/02 A3009 RMK AO2 T00360016

More Conditions Fewer Conditions

Pressure 30.09 in
Visibility 10.0 miles
Clouds Overcast 2700 ft
Windchill 41 °F
Dew Point 37 °F
Humidity 86%
Rainfall 0.00 in
Snow Depth Not available.
UV 0 out of 12
Pollen 10.10 out of 12
Air Quality Not available.
Flu Activity Regional
METAR KCVX 271235Z AUTO 36006KT 10SM OVC027 04/02 A3009 RMK AO2 T00360016

More Conditions Fewer Conditions

Nowcast | as of 8:00 am EDT on April 27, 2015

At 9 am...cloudy. Temperature 39. North winds 9 mph. At 11 am...mostly cloudy. Temperature 40. North winds 12 mph. At 1 PM...mostly cloudy. Temperature 43. North winds 12 mph. At 3 PM...mostly cloudy. Temperature 45. Northwest winds 12 mph.

×

10-Day Weather Forecast

Almanac

Astronomy

Apr. 27, 2015 Rise Set
Actual Time
Civil Twilight
Nautical Twilight
Astronomical Twilight
Moon
Length of Visible Light
Length of Day
Tomorrow will be .
, % of the Moon is Illuminated

Today's Extremes

State Highs State Lows

Community

WunderPhotos

Upload Photos

1,817,292 photos uploaded!

WunderBlogs® & News

Nearby

Air Quality

  Air Quality AQ Index Pollutant
Not available.

Snow Depth

Station Depth Elevation

Earthquake Activity

City Distance Mag. Time & Date
Minimum magnitude displayed is 2.5.

Coastal Water Temperatures

Place Temperature

Stations

Nearby Weather Stations

Station Location Temp. Windchill Dew Point Humidity Wind Precip. Elev Updated Type